createdAt,value
2023-08-17T00:02:17.496Z,101197.19
2023-08-17T00:04:44.227Z,101196.34
2023-08-17T00:07:10.839Z,101201.97
2023-08-17T00:09:37.502Z,101206.44
2023-08-17T00:12:04.985Z,101197.66
2023-08-17T00:14:32.801Z,101199.53
2023-08-17T00:17:00.238Z,101202.31
2023-08-17T00:19:26.838Z,101212.31
2023-08-17T00:21:54.023Z,101214.13
2023-08-17T00:24:22.192Z,101225.06
2023-08-17T00:26:48.830Z,101217.16
2023-08-17T00:29:16.213Z,101219.06
2023-08-17T00:31:43.079Z,101225.44
2023-08-17T00:34:12.131Z,101218.53
2023-08-17T00:36:38.715Z,101223.97
2023-08-17T00:39:05.544Z,101222.34
2023-08-17T00:41:32.251Z,101217.97
2023-08-17T00:43:58.887Z,101222.50
2023-08-17T00:46:26.134Z,101220.88
2023-08-17T00:48:53.526Z,101223.63
2023-08-17T00:51:21.798Z,101224.59
2023-08-17T00:53:48.508Z,101230.88
2023-08-17T00:56:15.291Z,101223.81
2023-08-17T00:58:43.551Z,101231.91
2023-08-17T01:01:10.498Z,101232.94
2023-08-17T01:03:37.577Z,101228.78
2023-08-17T01:06:04.380Z,101236.66
2023-08-17T01:08:31.555Z,101234.06
2023-08-17T01:11:10.300Z,101237.59
2023-08-17T01:13:48.845Z,101234.13
2023-08-17T01:16:22.387Z,101225.28
2023-08-17T01:18:51.439Z,101233.28
2023-08-17T01:21:20.910Z,101231.56
2023-08-17T01:23:48.215Z,101222.97
2023-08-17T01:26:16.853Z,101229.16
2023-08-17T01:28:48.249Z,101230.09
2023-08-17T01:31:32.754Z,101236.41
2023-08-17T01:34:06.216Z,101231.16
2023-08-17T01:36:46.867Z,101226.91
2023-08-17T01:39:15.189Z,101227.78
2023-08-17T01:41:43.148Z,101225.00
2023-08-17T01:44:09.937Z,101223.97
2023-08-17T01:46:36.770Z,101225.19
2023-08-17T01:49:03.546Z,101229.31
2023-08-17T01:51:31.037Z,101227.50
2023-08-17T01:53:57.723Z,101238.19
2023-08-17T01:56:24.471Z,101237.25
2023-08-17T01:58:51.107Z,101245.19
2023-08-17T02:01:17.724Z,101258.63
2023-08-17T02:03:44.404Z,101263.00
2023-08-17T02:06:12.598Z,101261.28
2023-08-17T02:08:39.964Z,101267.38
2023-08-17T02:11:06.578Z,101264.72
2023-08-17T02:13:33.177Z,101266.44
2023-08-17T02:15:59.804Z,101270.84
2023-08-17T02:18:26.391Z,101269.91
2023-08-17T02:20:53.828Z,101269.13
2023-08-17T02:23:20.493Z,101265.50
2023-08-17T02:25:47.155Z,101261.81
2023-08-17T02:28:13.782Z,101255.50
2023-08-17T02:30:40.886Z,101258.09
2023-08-17T02:33:08.700Z,101253.63
2023-08-17T02:35:36.118Z,101253.47
2023-08-17T02:38:02.840Z,101265.59
2023-08-17T02:40:29.671Z,101266.19
2023-08-17T02:42:57.747Z,101264.31
2023-08-17T02:45:24.453Z,101264.13
2023-08-17T02:47:51.122Z,101271.88
2023-08-17T02:50:19.548Z,101273.53
2023-08-17T02:52:46.178Z,101276.91
2023-08-17T02:55:12.826Z,101279.22
2023-08-17T02:57:42.515Z,101285.75
2023-08-17T03:00:09.932Z,101277.72
2023-08-17T03:02:36.740Z,101280.16
2023-08-17T03:05:04.423Z,101270.41
2023-08-17T03:07:31.051Z,101270.53
2023-08-17T03:09:57.692Z,101275.44
2023-08-17T03:12:25.044Z,101273.91
2023-08-17T03:14:51.682Z,101264.56
2023-08-17T03:17:18.300Z,101271.56
2023-08-17T03:19:45.782Z,101277.38
2023-08-17T03:22:12.405Z,101277.06
2023-08-17T03:24:39.091Z,101272.22
2023-08-17T03:27:06.671Z,101287.13
2023-08-17T03:29:33.315Z,101288.69
2023-08-17T03:31:59.942Z,101288.09
2023-08-17T03:34:26.597Z,101300.75
2023-08-17T03:36:54.925Z,101296.72
2023-08-17T03:39:21.555Z,101292.72
2023-08-17T03:41:48.247Z,101292.84
2023-08-17T03:44:16.631Z,101290.25
2023-08-17T03:46:43.258Z,101289.63
